createdAt,value
2018-10-06T08:57:47.812Z,99.90
2018-10-06T09:10:09.265Z,99.90
2018-10-06T09:12:37.618Z,99.90
2018-10-06T09:15:06.436Z,99.90
2018-10-06T09:17:34.809Z,99.90
2018-10-06T09:20:17.474Z,99.90
2018-10-06T09:22:45.866Z,99.90
2018-10-06T09:25:28.777Z,99.90
2018-10-06T09:27:58.265Z,99.90
2018-10-06T09:30:26.599Z,99.90
2018-10-06T09:32:54.925Z,99.90
2018-10-06T09:35:23.292Z,99.90
2018-10-06T09:37:51.706Z,99.90
2018-10-06T09:40:20.052Z,99.90
2018-10-06T09:42:48.486Z,99.90
2018-10-06T09:45:16.666Z,99.90
2018-10-06T09:47:45.035Z,99.90
2018-10-06T09:50:13.418Z,99.90
2018-10-06T09:52:42.327Z,99.90
2018-10-06T09:55:10.663Z,99.90
2018-10-06T09:57:38.941Z,99.90
2018-10-06T10:00:07.685Z,99.90
2018-10-06T10:02:41.550Z,99.90
2018-10-06T10:05:15.354Z,99.90
2018-10-06T10:07:43.967Z,99.90
2018-10-06T10:10:12.337Z,99.90
2018-10-06T10:12:40.755Z,99.90
2018-10-06T10:15:09.038Z,99.90
2018-10-06T10:17:37.543Z,99.90
2018-10-06T12:58:05.126Z,99.90
2018-10-06T13:00:33.551Z,88.30
2018-10-06T13:03:01.928Z,84.90
2018-10-06T13:05:30.411Z,80.20
2018-10-06T13:07:58.907Z,76.80
2018-10-06T13:10:27.226Z,72.00
2018-10-06T13:12:56.378Z,69.50
2018-10-06T13:15:24.664Z,65.00
2018-10-06T13:17:52.950Z,62.70
2018-10-06T13:20:21.278Z,62.20
2018-10-06T13:22:49.647Z,62.00
2018-10-06T13:25:18.064Z,59.50
2018-10-06T13:27:46.447Z,58.90
2018-10-06T13:30:21.513Z,57.30
2018-10-06T13:32:50.437Z,57.30
2018-10-06T13:35:18.870Z,56.20
2018-10-06T13:37:47.204Z,55.00
2018-10-06T13:40:15.669Z,54.10
2018-10-06T13:42:43.974Z,53.90
2018-10-06T13:45:12.435Z,52.90
2018-10-06T13:47:40.823Z,51.90
2018-10-06T13:50:09.222Z,51.80
2018-10-06T13:52:37.559Z,51.20
2018-10-06T13:55:05.848Z,51.30
2018-10-06T13:57:34.228Z,51.40
2018-10-06T14:00:02.499Z,50.20
2018-10-06T14:02:30.869Z,48.80
2018-10-06T14:04:59.170Z,47.90
2018-10-06T14:07:27.538Z,47.20
2018-10-06T14:09:56.195Z,47.50
2018-10-06T14:12:24.461Z,47.60
2018-10-06T14:14:52.846Z,48.00
2018-10-06T14:17:21.252Z,47.90
2018-10-06T14:19:49.597Z,45.80
2018-10-06T14:22:18.414Z,47.30
2018-10-06T14:24:46.845Z,49.10
2018-10-06T14:27:15.266Z,50.50
2018-10-06T14:39:36.092Z,52.20
2018-10-06T14:42:04.445Z,53.30
2018-10-06T14:44:32.806Z,53.30
2018-10-06T14:47:01.178Z,53.10
2018-10-06T14:49:29.575Z,51.90
2018-10-06T14:51:57.984Z,50.50
2018-10-06T14:54:26.282Z,49.90
2018-10-06T14:56:54.758Z,50.50
2018-10-06T14:59:23.346Z,52.20
2018-10-06T15:01:52.778Z,53.30
2018-10-06T15:04:21.321Z,54.20
